Las Palomas, New Mexico
Current Conditions -  °F | °C
As of 11:53 AM on Monday 20 Oct 2014 (Local Time) from KTCS Reporting Station
Clear Clear  
Wind Chill: 66°   Ceiling: Unl
Heat Index: 66°   Visibility: 10mi
Dew Point: 50°   Wind: 9mph
Humidity: 56%   Direction: 40°NE
Pressure: 30.15"   Gusts: NA
Location:  33.1162°N, 107.291°W
Report Text: KTCS 201753Z AUTO 04008KT 10SM CLR 19/10 A3015 RMK AO2 SLP154 T01890100 10189 20100 58002 TSNO
Loading
Personal Weather Stations






























Interactive Weather Map
Tropical Storm Tracking
New forecast layout! Learn more

10-Day Weather Forecast

Advertisements
Track Severe Weather on mobile